Airfield :







YOU CAN JOIN US ON...

 
LOGIN :

Register | Disclaimer

   EN    FR    IT 

 









Legend :    VFR   Marginal VFR   IFR   Intensive IFR   Very Intensive IFR
Visi :
Ceiling :
>= 8 km
>= 3000ft
5 to 8 km
1000 to 3000 ft
1500m to 5 km
500 to 1000 ft
800 to 1500m
200 to 500 ft
< 800m
< 200 ft
Symbols :   Thunderstorms  Fog  Heavy snow  Heavy precipitations  Wind > 20 kt







- Airport Elevation : 1166 ft


KMPV - Edward F Knapp State

CURRENT METAR :
  • 200851Z AUTO 18007KT 10SM OVC005 18/17 A2974 RMK AO2 SLP067 T01780172 56009

EXPIRED METARs :
  • 200751Z AUTO 19005KT 10SM OVC006 18/17 A2975 RMK AO2 SLP068 T01780172
  • 200720Z AUTO 15005KT 10SM BKN009 18/17 A2975 RMK AO2 T01780172
  • 200651Z AUTO 00000KT 10SM BKN080 17/17 A2976 RMK AO2 SLP074 T01720167

TAF KMPV
Valid from the 20 at 06:00 until the 21 at 06:00 UTC


200539Z 2006/2106 VRB03KT P6SM BKN100
TEMPO 2006/2010 2SM BR BKN005
FM201500 VRB04KT P6SM VCSH OVC020
FM201900 VRB04KT 3SM RA BR OVC010
FM210200 VRB04KT 4SM -RA BR OVC006
KZBW FIR / North America



MET'MAP, your aeronautical weather chart ! - Copyright ORBIFLY December 2007 - Disclaimer

ORBIFLY MET'MAP TEAM :

Programming & Development : Alexandra Zaïnal
Concept & Development : Baudouin d'Aumeries
Co-Development & Prog : Marc-Olivier Méhu
Technical & hardware support : Manuel Goepfert

Contact : metmap@orbifly.com




SOURCES & CREDITS :

   NOAA